createdAt,value
2023-05-17T00:00:40.897Z,80.35
2023-05-17T00:01:44.513Z,80.60
2023-05-17T00:02:48.419Z,80.59
2023-05-17T00:03:54.330Z,80.63
2023-05-17T00:05:00.082Z,80.52
2023-05-17T00:06:05.074Z,80.68
2023-05-17T00:07:07.974Z,80.50
2023-05-17T00:08:12.533Z,80.54
2023-05-17T00:09:15.756Z,80.44
2023-05-17T00:10:19.460Z,80.54
2023-05-17T00:11:23.503Z,80.57
2023-05-17T00:12:27.924Z,80.45
2023-05-17T00:13:32.073Z,80.28
2023-05-17T00:14:36.120Z,80.71
2023-05-17T00:15:39.105Z,80.41
2023-05-17T00:16:44.005Z,80.53
2023-05-17T00:17:47.365Z,80.35
2023-05-17T00:18:51.581Z,80.54
2023-05-17T00:19:54.635Z,80.60
2023-05-17T00:20:58.733Z,80.36
2023-05-17T00:22:02.674Z,80.52
2023-05-17T00:23:06.673Z,80.59
2023-05-17T00:24:09.791Z,80.49
2023-05-17T00:25:13.736Z,80.73
2023-05-17T00:26:17.847Z,80.51
2023-05-17T00:27:21.794Z,80.61
2023-05-17T00:28:24.654Z,80.39
2023-05-17T00:29:30.120Z,80.57
2023-05-17T00:30:33.375Z,80.79
2023-05-17T00:31:37.065Z,80.77
2023-05-17T00:32:40.119Z,80.84
2023-05-17T00:33:43.708Z,80.71
2023-05-17T00:34:47.027Z,80.59
2023-05-17T00:35:50.521Z,80.55
2023-05-17T00:36:53.366Z,80.69
2023-05-17T00:37:57.346Z,80.68
2023-05-17T00:38:59.926Z,80.44
2023-05-17T00:40:07.104Z,80.53
2023-05-17T00:41:10.660Z,80.54
2023-05-17T00:42:15.606Z,80.53
2023-05-17T00:43:19.412Z,80.52
2023-05-17T00:44:23.019Z,80.59
2023-05-17T00:45:27.331Z,80.30
2023-05-17T00:46:31.567Z,80.37
2023-05-17T00:47:35.068Z,80.31
2023-05-17T00:48:39.279Z,80.49
2023-05-17T00:49:42.287Z,80.40
2023-05-17T00:50:46.429Z,80.29
2023-05-17T00:51:49.559Z,80.21
2023-05-17T00:52:53.127Z,80.39
2023-05-17T00:53:56.696Z,80.39
2023-05-17T00:55:00.869Z,80.47
2023-05-17T00:56:03.987Z,80.57
2023-05-17T00:57:08.151Z,80.45
2023-05-17T00:58:11.506Z,80.54
2023-05-17T00:59:15.961Z,80.53
2023-05-17T01:00:18.997Z,80.28
2023-05-17T01:01:28.447Z,80.37
2023-05-17T01:02:31.666Z,80.57
2023-05-17T01:03:35.860Z,80.33
2023-05-17T01:04:39.644Z,80.46
2023-05-17T01:05:43.970Z,80.33
2023-05-17T01:06:46.951Z,80.69
2023-05-17T01:07:51.004Z,80.44
2023-05-17T01:08:54.447Z,80.52
2023-05-17T01:09:58.237Z,80.41
2023-05-17T01:11:14.899Z,80.38
2023-05-17T01:12:31.956Z,80.66
2023-05-17T01:13:41.065Z,80.41
2023-05-17T01:14:53.911Z,80.52
2023-05-17T01:16:06.477Z,80.63
2023-05-17T01:17:18.017Z,80.33
2023-05-17T01:18:31.259Z,80.63
2023-05-17T01:19:52.894Z,80.52
2023-05-17T01:21:00.238Z,80.80
2023-05-17T01:22:21.285Z,80.47
2023-05-17T01:23:37.273Z,80.73
2023-05-17T01:24:51.773Z,80.55
2023-05-17T01:26:09.374Z,80.86
2023-05-17T01:27:15.776Z,81.14
2023-05-17T01:28:21.836Z,80.78
2023-05-17T01:29:27.016Z,80.95
2023-05-17T01:30:32.363Z,80.65
2023-05-17T01:31:36.929Z,80.73
2023-05-17T01:32:43.198Z,80.72
2023-05-17T01:33:46.237Z,80.78
2023-05-17T01:34:49.866Z,80.69
2023-05-17T01:35:53.728Z,81.01
2023-05-17T01:36:57.950Z,80.70
2023-05-17T01:38:00.908Z,80.66
2023-05-17T01:39:05.145Z,80.87
2023-05-17T01:40:09.564Z,80.85
2023-05-17T01:41:21.089Z,80.85
2023-05-17T01:42:31.702Z,80.75
2023-05-17T01:43:43.185Z,80.92
2023-05-17T01:45:00.780Z,80.91
2023-05-17T01:46:14.850Z,81.19
2023-05-17T01:47:28.942Z,81.26
2023-05-17T01:48:41.272Z,81.30
2023-05-17T01:49:49.422Z,81.26
2023-05-17T01:50:55.715Z,81.43
2023-05-17T01:52:03.640Z,81.30
2023-05-17T01:53:12.189Z,81.24
2023-05-17T01:54:19.133Z,81.29
2023-05-17T01:55:33.004Z,81.17
2023-05-17T01:56:41.887Z,81.12
2023-05-17T01:57:50.452Z,81.38
2023-05-17T01:58:54.179Z,81.29
2023-05-17T02:00:01.960Z,81.21
2023-05-17T02:01:16.104Z,81.15
2023-05-17T02:02:22.813Z,81.17
2023-05-17T02:03:29.497Z,81.01
2023-05-17T02:04:33.091Z,81.43
2023-05-17T02:05:37.104Z,81.14
2023-05-17T02:06:40.144Z,81.30
2023-05-17T02:07:44.008Z,81.10
2023-05-17T02:08:46.788Z,81.50
2023-05-17T02:09:50.834Z,81.25
2023-05-17T02:10:54.470Z,81.11
2023-05-17T02:11:58.480Z,80.93
2023-05-17T02:13:02.635Z,81.30
2023-05-17T02:14:06.151Z,81.35
2023-05-17T02:15:11.639Z,81.24
2023-05-17T02:16:15.764Z,81.15
2023-05-17T02:17:19.000Z,81.18
2023-05-17T02:18:23.259Z,81.12
2023-05-17T02:19:26.167Z,81.34
2023-05-17T02:20:30.295Z,81.59
2023-05-17T02:21:33.453Z,81.29
2023-05-17T02:22:37.648Z,81.36
2023-05-17T02:23:41.233Z,81.59
2023-05-17T02:24:44.461Z,81.38
2023-05-17T02:25:48.267Z,81.65
2023-05-17T02:26:51.527Z,81.48
2023-05-17T02:27:56.892Z,81.48
2023-05-17T02:29:01.445Z,81.42
2023-05-17T02:30:06.745Z,81.56
2023-05-17T02:31:09.885Z,81.58
2023-05-17T02:32:13.827Z,81.57
2023-05-17T02:33:17.026Z,81.62
2023-05-17T02:34:21.162Z,81.44
2023-05-17T02:35:24.048Z,81.61
2023-05-17T02:36:28.344Z,81.72
2023-05-17T02:37:30.992Z,81.62
2023-05-17T02:38:35.165Z,81.76
2023-05-17T02:39:37.803Z,81.52
2023-05-17T02:40:43.155Z,81.77
2023-05-17T02:41:46.367Z,81.79
2023-05-17T02:42:50.523Z,81.95
2023-05-17T02:43:53.488Z,81.63
2023-05-17T02:44:58.911Z,81.89
2023-05-17T02:46:01.938Z,81.79
2023-05-17T02:47:06.320Z,81.91
2023-05-17T02:48:09.897Z,81.76
2023-05-17T02:49:14.268Z,81.92
2023-05-17T02:50:17.341Z,81.83
2023-05-17T02:51:21.155Z,81.76
2023-05-17T02:52:24.100Z,82.39
2023-05-17T02:53:28.423Z,82.26
2023-05-17T02:54:31.158Z,82.13
2023-05-17T02:55:35.454Z,82.22
2023-05-17T02:56:38.162Z,82.27
2023-05-17T02:57:41.710Z,81.82
2023-05-17T02:58:45.534Z,81.99
2023-05-17T02:59:49.474Z,82.11
2023-05-17T03:00:59.022Z,82.19
2023-05-17T03:02:15.165Z,82.30
2023-05-17T03:03:22.290Z,82.23
2023-05-17T03:04:36.477Z,82.44
2023-05-17T03:05:39.173Z,82.29
2023-05-17T03:06:44.220Z,82.68
2023-05-17T03:07:46.728Z,82.32
2023-05-17T03:08:50.555Z,82.23
2023-05-17T03:09:53.559Z,82.52
2023-05-17T03:10:57.459Z,82.27
2023-05-17T03:12:01.472Z,82.06
2023-05-17T03:13:05.645Z,82.38
2023-05-17T03:14:08.382Z,82.59
2023-05-17T03:15:13.137Z,82.29
2023-05-17T03:16:17.434Z,82.59
2023-05-17T03:17:21.648Z,82.63
2023-05-17T03:18:25.589Z,82.64
2023-05-17T03:19:29.667Z,82.48
2023-05-17T03:20:32.695Z,82.47
2023-05-17T03:21:36.586Z,82.52
2023-05-17T03:22:40.448Z,82.69
2023-05-17T03:23:44.236Z,82.42
2023-05-17T03:24:47.658Z,82.79
2023-05-17T03:25:51.361Z,82.63
2023-05-17T03:26:54.067Z,82.86
2023-05-17T03:27:58.600Z,83.02
2023-05-17T03:29:01.400Z,82.77
2023-05-17T03:30:05.540Z,82.59
2023-05-17T03:31:08.737Z,82.61
2023-05-17T03:32:13.927Z,82.63
2023-05-17T03:33:16.882Z,82.75
2023-05-17T03:34:20.583Z,82.70
2023-05-17T03:35:23.990Z,82.96
2023-05-17T03:36:28.438Z,83.02
2023-05-17T03:37:31.527Z,82.83
2023-05-17T03:38:36.944Z,82.71
2023-05-17T03:39:40.914Z,82.97
2023-05-17T03:40:44.418Z,83.01
2023-05-17T03:41:49.102Z,82.74
2023-05-17T03:42:52.151Z,82.95
2023-05-17T03:43:56.172Z,83.11
2023-05-17T03:44:59.315Z,83.04
2023-05-17T03:46:03.524Z,82.98
2023-05-17T03:47:06.762Z,82.88
2023-05-17T03:48:12.046Z,82.88
2023-05-17T03:49:15.020Z,83.09
2023-05-17T03:50:19.069Z,83.06
2023-05-17T03:51:23.037Z,82.82
2023-05-17T03:52:26.765Z,83.29
2023-05-17T03:53:29.597Z,83.20
2023-05-17T03:54:33.610Z,83.03
2023-05-17T03:55:36.747Z,83.13
2023-05-17T03:56:41.193Z,82.91
2023-05-17T03:57:44.223Z,82.92
2023-05-17T03:58:47.936Z,83.27
2023-05-17T03:59:50.917Z,82.98
2023-05-17T04:00:54.865Z,83.05
2023-05-17T04:01:58.829Z,83.37
2023-05-17T04:03:02.855Z,82.95
2023-05-17T04:04:07.352Z,83.24
2023-05-17T04:05:13.087Z,83.10
2023-05-17T04:06:16.159Z,83.05
2023-05-17T04:07:21.253Z,83.11
2023-05-17T04:08:24.095Z,83.30
2023-05-17T04:09:27.718Z,83.10
2023-05-17T04:10:31.053Z,82.85
2023-05-17T04:11:35.181Z,83.22
2023-05-17T04:12:38.629Z,82.85
2023-05-17T04:13:43.310Z,83.09
2023-05-17T04:14:46.465Z,83.20
2023-05-17T04:15:51.045Z,83.35
2023-05-17T04:16:55.014Z,83.18
2023-05-17T04:17:58.896Z,83.04
2023-05-17T04:19:03.101Z,83.55
2023-05-17T04:20:08.020Z,83.13
2023-05-17T04:21:13.222Z,83.50
2023-05-17T04:22:15.952Z,83.36
2023-05-17T04:23:19.204Z,83.45
2023-05-17T04:24:23.310Z,83.36
2023-05-17T04:25:27.139Z,83.46
2023-05-17T04:26:31.563Z,83.32
2023-05-17T04:27:34.229Z,83.42
2023-05-17T04:28:38.450Z,83.44
2023-05-17T04:29:41.342Z,83.47
2023-05-17T04:30:46.277Z,83.88
2023-05-17T04:31:50.996Z,83.42
2023-05-17T04:32:53.754Z,83.62
2023-05-17T04:33:57.641Z,83.43
2023-05-17T04:35:01.255Z,83.63
2023-05-17T04:36:07.438Z,83.56
2023-05-17T04:37:11.736Z,83.51
2023-05-17T04:38:16.581Z,83.48
2023-05-17T04:39:19.336Z,83.40
2023-05-17T04:40:22.977Z,83.59
2023-05-17T04:41:25.893Z,83.82
2023-05-17T04:42:30.053Z,83.81
2023-05-17T04:43:33.713Z,83.72
2023-05-17T04:44:37.388Z,83.89
2023-05-17T04:45:40.059Z,83.62
2023-05-17T04:46:44.409Z,83.78
2023-05-17T04:47:48.068Z,83.96
2023-05-17T04:48:52.089Z,83.88
2023-05-17T04:49:56.598Z,83.72
2023-05-17T04:51:04.602Z,83.77
2023-05-17T04:52:09.466Z,83.74
2023-05-17T04:53:13.673Z,83.74
2023-05-17T04:54:16.832Z,83.85
2023-05-17T04:55:21.346Z,83.81
2023-05-17T04:56:24.424Z,84.00
2023-05-17T04:57:28.401Z,83.76
2023-05-17T04:58:32.724Z,83.60
2023-05-17T04:59:36.490Z,83.84
2023-05-17T05:00:39.080Z,83.79
2023-05-17T05:01:43.566Z,83.75
2023-05-17T05:02:47.200Z,83.75
2023-05-17T05:03:51.398Z,83.79
2023-05-17T05:04:54.414Z,83.82
2023-05-17T05:05:58.510Z,83.94
2023-05-17T05:07:01.620Z,83.79
2023-05-17T05:08:06.980Z,83.77
2023-05-17T05:09:11.655Z,83.84
2023-05-17T05:10:15.545Z,83.77
2023-05-17T05:11:19.000Z,84.16
2023-05-17T05:12:22.578Z,83.86
2023-05-17T05:13:25.579Z,83.86
2023-05-17T05:14:30.608Z,84.02
2023-05-17T05:15:33.928Z,84.04
2023-05-17T05:16:37.888Z,84.17
2023-05-17T05:17:40.859Z,84.11
2023-05-17T05:18:45.568Z,84.25
2023-05-17T05:19:48.829Z,84.26
2023-05-17T05:20:53.338Z,84.15
2023-05-17T05:21:57.251Z,84.00
2023-05-17T05:23:03.980Z,84.28
2023-05-17T05:24:10.370Z,84.19
2023-05-17T05:25:13.081Z,84.39
2023-05-17T05:26:17.110Z,84.30
2023-05-17T05:27:20.413Z,84.27
2023-05-17T05:28:25.034Z,84.42
2023-05-17T05:29:29.032Z,84.40
2023-05-17T05:30:34.045Z,84.53
2023-05-17T05:31:37.124Z,84.53
2023-05-17T05:32:40.930Z,84.67
2023-05-17T05:33:44.449Z,84.41
2023-05-17T05:34:49.141Z,84.48
2023-05-17T05:35:54.928Z,84.56
2023-05-17T05:36:59.123Z,84.47
2023-05-17T05:38:02.002Z,84.65
2023-05-17T05:39:07.847Z,84.33
2023-05-17T05:40:14.577Z,84.65
2023-05-17T05:41:19.110Z,84.74
2023-05-17T05:42:22.349Z,84.45
2023-05-17T05:43:26.081Z,84.47
2023-05-17T05:44:29.178Z,84.53
2023-05-17T05:45:34.006Z,84.59
2023-05-17T05:46:37.359Z,84.60
2023-05-17T05:47:40.837Z,84.37
2023-05-17T05:48:45.032Z,84.12
2023-05-17T05:49:49.144Z,84.27
2023-05-17T05:50:53.368Z,84.23
2023-05-17T05:51:57.640Z,84.12
2023-05-17T05:53:11.007Z,84.31
2023-05-17T05:54:21.996Z,84.48
2023-05-17T05:55:27.069Z,84.28
2023-05-17T05:56:30.837Z,84.27
2023-05-17T05:57:33.793Z,84.08
2023-05-17T05:58:38.466Z,84.12
2023-05-17T05:59:41.090Z,83.92
2023-05-17T06:00:45.368Z,84.32
2023-05-17T06:01:49.412Z,84.19
2023-05-17T06:02:54.148Z,84.22
2023-05-17T06:03:57.113Z,84.08
2023-05-17T06:05:01.793Z,84.09
2023-05-17T06:06:05.870Z,84.01
2023-05-17T06:07:09.688Z,84.12
2023-05-17T06:08:13.050Z,84.00
2023-05-17T06:09:17.487Z,84.04
2023-05-17T06:10:21.268Z,83.83
2023-05-17T06:11:27.807Z,84.21
2023-05-17T06:12:31.037Z,84.24
2023-05-17T06:13:35.467Z,83.87
2023-05-17T06:14:38.738Z,83.96
2023-05-17T06:15:43.262Z,84.35
2023-05-17T06:16:48.859Z,84.41
2023-05-17T06:17:52.775Z,84.40
2023-05-17T06:18:56.505Z,84.66
2023-05-17T06:20:00.898Z,84.57
2023-05-17T06:21:04.321Z,84.56
2023-05-17T06:22:08.279Z,84.67
2023-05-17T06:23:11.145Z,84.70
2023-05-17T06:24:15.467Z,84.47
2023-05-17T06:25:18.277Z,84.63
2023-05-17T06:26:22.680Z,84.15
2023-05-17T06:27:27.173Z,83.83
2023-05-17T06:28:31.138Z,83.00
2023-05-17T06:29:34.834Z,82.30
2023-05-17T06:30:37.789Z,81.42
2023-05-17T06:31:41.642Z,80.66
2023-05-17T06:32:44.479Z,79.52
2023-05-17T06:33:48.258Z,78.84
2023-05-17T06:34:51.610Z,77.39
2023-05-17T06:35:58.168Z,76.35
2023-05-17T06:37:01.772Z,76.48
2023-05-17T06:38:05.929Z,76.11
2023-05-17T06:39:09.180Z,75.07
2023-05-17T06:40:17.021Z,73.66
2023-05-17T06:41:21.362Z,72.54
2023-05-17T06:42:30.785Z,71.35
2023-05-17T06:43:35.747Z,71.10
2023-05-17T06:44:40.768Z,71.38
2023-05-17T06:45:44.784Z,71.16
2023-05-17T06:46:48.094Z,71.32
2023-05-17T06:47:52.866Z,71.77
2023-05-17T06:48:56.789Z,72.05
2023-05-17T06:50:00.105Z,72.53
2023-05-17T06:51:03.881Z,72.90
2023-05-17T06:52:06.685Z,73.08
2023-05-17T06:53:10.965Z,73.99
2023-05-17T06:54:14.821Z,73.97
2023-05-17T06:55:18.579Z,74.20
2023-05-17T06:56:22.374Z,73.96
2023-05-17T06:57:25.385Z,74.04
2023-05-17T06:58:31.909Z,74.16
2023-05-17T06:59:35.005Z,74.22
2023-05-17T07:00:38.999Z,74.66
2023-05-17T07:01:42.621Z,74.64
2023-05-17T07:02:46.372Z,74.42
2023-05-17T07:03:49.895Z,74.04
2023-05-17T07:04:53.023Z,72.75
2023-05-17T07:05:58.124Z,72.20
2023-05-17T07:07:01.530Z,71.75
2023-05-17T07:08:06.038Z,71.56
2023-05-17T07:09:09.485Z,72.23
2023-05-17T07:10:13.336Z,72.00
2023-05-17T07:11:16.989Z,72.17
2023-05-17T07:12:21.161Z,72.27
2023-05-17T07:13:26.691Z,72.53
2023-05-17T07:14:31.282Z,72.70
2023-05-17T07:15:35.098Z,72.71
2023-05-17T07:16:39.360Z,72.99
2023-05-17T07:17:44.322Z,73.29
2023-05-17T07:18:48.822Z,73.16
2023-05-17T07:20:00.297Z,73.37
2023-05-17T07:21:05.659Z,73.72
2023-05-17T07:22:08.600Z,73.70
2023-05-17T07:23:13.537Z,73.89
2023-05-17T07:24:17.090Z,73.64
2023-05-17T07:25:25.006Z,74.09
2023-05-17T07:26:30.087Z,74.48
2023-05-17T07:27:34.017Z,74.55
2023-05-17T07:28:38.673Z,74.46
2023-05-17T07:29:44.854Z,74.71
2023-05-17T07:30:50.877Z,74.47
2023-05-17T07:31:59.144Z,74.13
2023-05-17T07:33:05.171Z,73.70
2023-05-17T07:34:09.700Z,73.13
2023-05-17T07:35:13.307Z,73.04
2023-05-17T07:36:17.495Z,73.63
2023-05-17T07:37:22.480Z,73.39
2023-05-17T07:38:26.634Z,73.15
2023-05-17T07:39:29.880Z,73.33
2023-05-17T07:40:33.509Z,73.36
2023-05-17T07:41:39.244Z,73.25
2023-05-17T07:42:43.473Z,73.52
2023-05-17T07:43:46.190Z,73.56
2023-05-17T07:44:52.685Z,73.38
2023-05-17T07:45:55.534Z,73.87
2023-05-17T07:46:59.902Z,73.85
2023-05-17T07:48:02.849Z,73.73
2023-05-17T07:49:06.908Z,73.65
2023-05-17T07:50:10.738Z,73.28
2023-05-17T07:51:14.980Z,73.84
2023-05-17T07:52:18.485Z,73.71
2023-05-17T07:53:23.047Z,73.92
2023-05-17T07:54:31.329Z,74.05
2023-05-17T07:55:36.137Z,74.07
2023-05-17T07:56:39.883Z,73.55
2023-05-17T07:57:45.658Z,73.57
2023-05-17T07:58:49.850Z,73.16
2023-05-17T07:59:56.942Z,72.16
2023-05-17T08:01:02.288Z,71.91
2023-05-17T08:02:06.687Z,71.88
2023-05-17T08:03:11.706Z,71.97
2023-05-17T08:04:15.775Z,72.67
2023-05-17T08:05:20.420Z,73.17
2023-05-17T08:06:25.669Z,73.63
2023-05-17T08:07:30.145Z,74.21
2023-05-17T08:08:35.471Z,74.29
2023-05-17T08:09:41.039Z,74.35
2023-05-17T08:10:46.738Z,74.43
2023-05-17T08:11:50.396Z,74.33
2023-05-17T08:12:55.612Z,74.54
2023-05-17T08:14:00.319Z,74.91
2023-05-17T08:15:08.122Z,75.20
2023-05-17T08:16:14.822Z,75.53
2023-05-17T08:17:20.703Z,75.82
2023-05-17T08:18:24.919Z,76.17
2023-05-17T08:19:30.588Z,76.50
2023-05-17T08:20:36.181Z,76.72
2023-05-17T08:21:40.526Z,76.56
2023-05-17T08:22:45.678Z,76.92
2023-05-17T08:23:49.607Z,77.06
2023-05-17T08:24:54.874Z,77.29
2023-05-17T08:25:57.908Z,77.24
2023-05-17T08:27:02.704Z,77.47
2023-05-17T08:28:06.683Z,77.64
2023-05-17T08:29:11.281Z,77.68
2023-05-17T08:30:27.860Z,77.45
2023-05-17T08:31:33.604Z,77.37
2023-05-17T08:32:37.826Z,77.71
2023-05-17T08:33:42.943Z,77.73
2023-05-17T08:34:47.767Z,77.70
2023-05-17T08:35:53.519Z,77.45
2023-05-17T08:36:56.700Z,77.50
2023-05-17T08:38:01.433Z,76.99
2023-05-17T08:39:09.171Z,77.06
2023-05-17T08:40:13.067Z,76.51
2023-05-17T08:41:18.081Z,76.38
2023-05-17T08:42:25.730Z,75.84
2023-05-17T08:43:29.737Z,75.87
2023-05-17T08:44:34.544Z,75.67
2023-05-17T08:45:40.283Z,75.70
2023-05-17T08:46:46.070Z,75.68
2023-05-17T08:47:52.067Z,75.40
2023-05-17T08:49:00.452Z,75.69
2023-05-17T08:50:05.492Z,75.79
2023-05-17T08:51:10.572Z,75.91
2023-05-17T08:52:16.071Z,75.79
2023-05-17T08:53:20.014Z,76.09
2023-05-17T08:54:24.905Z,75.80
2023-05-17T08:55:33.430Z,75.94
2023-05-17T08:56:44.315Z,75.73
2023-05-17T08:57:51.049Z,75.88
2023-05-17T08:58:58.146Z,75.83
2023-05-17T09:00:04.595Z,75.89
2023-05-17T09:01:15.497Z,75.52
2023-05-17T09:02:19.741Z,75.04
2023-05-17T09:03:25.637Z,74.91
2023-05-17T09:04:31.680Z,75.66
2023-05-17T09:05:36.604Z,75.54
2023-05-17T09:06:45.934Z,75.60
2023-05-17T09:07:50.534Z,75.81
2023-05-17T09:08:55.912Z,75.47
2023-05-17T09:10:00.597Z,75.52
2023-05-17T09:11:04.324Z,75.41
2023-05-17T09:12:09.292Z,75.39
2023-05-17T09:13:13.449Z,75.50
2023-05-17T09:14:18.416Z,75.05
2023-05-17T09:15:28.326Z,74.90
2023-05-17T09:16:35.678Z,74.85
2023-05-17T09:17:39.919Z,74.54
2023-05-17T09:18:43.232Z,73.83
2023-05-17T09:19:50.906Z,73.82
2023-05-17T09:20:55.154Z,73.40
2023-05-17T09:22:02.913Z,72.82
2023-05-17T09:23:09.823Z,72.36
2023-05-17T09:24:13.382Z,72.47
2023-05-17T09:25:21.317Z,72.49
2023-05-17T09:26:26.355Z,72.67
2023-05-17T09:27:33.185Z,72.97
2023-05-17T09:28:41.058Z,72.36
2023-05-17T09:29:47.435Z,72.36
2023-05-17T09:30:52.760Z,72.94
2023-05-17T09:32:13.488Z,73.35
2023-05-17T09:33:19.025Z,73.95
2023-05-17T09:34:26.979Z,74.20
2023-05-17T09:35:31.162Z,73.96
2023-05-17T09:36:39.091Z,74.01
2023-05-17T09:37:45.952Z,74.10
2023-05-17T09:38:59.574Z,74.37
2023-05-17T09:40:07.402Z,74.78
2023-05-17T09:41:11.830Z,75.47
2023-05-17T09:42:18.480Z,76.03
2023-05-17T09:43:26.681Z,76.71
2023-05-17T09:44:30.480Z,77.34
2023-05-17T09:45:33.601Z,78.09
2023-05-17T09:46:43.006Z,79.01
2023-05-17T09:47:48.590Z,79.81
2023-05-17T09:48:55.521Z,80.32
2023-05-17T09:50:04.071Z,80.73
2023-05-17T09:51:08.356Z,81.37
2023-05-17T09:52:11.236Z,81.70
2023-05-17T09:53:26.289Z,81.59
2023-05-17T09:54:33.665Z,82.13
2023-05-17T09:55:39.206Z,82.36
2023-05-17T09:56:43.287Z,82.63
2023-05-17T09:57:48.780Z,82.79
2023-05-17T09:58:52.225Z,82.70
2023-05-17T09:59:58.253Z,82.82
2023-05-17T10:01:03.920Z,82.79
2023-05-17T10:02:13.329Z,82.73
2023-05-17T10:03:18.280Z,82.84
2023-05-17T10:04:24.944Z,83.34
2023-05-17T10:05:28.636Z,83.73
2023-05-17T10:06:46.067Z,83.83
2023-05-17T10:07:52.754Z,84.15
2023-05-17T10:08:59.591Z,84.51
2023-05-17T10:10:05.415Z,84.63
2023-05-17T10:11:11.328Z,84.94
2023-05-17T10:12:18.769Z,85.35
2023-05-17T10:13:26.050Z,84.98
2023-05-17T10:14:32.648Z,84.90
2023-05-17T10:15:38.672Z,85.22
2023-05-17T10:16:43.645Z,85.25
2023-05-17T10:17:48.413Z,85.18
2023-05-17T10:18:54.125Z,84.97
2023-05-17T10:19:59.946Z,85.17
2023-05-17T10:21:03.903Z,85.43
2023-05-17T10:22:18.974Z,85.16
2023-05-17T10:23:27.923Z,84.98
2023-05-17T10:24:32.028Z,85.10
2023-05-17T10:25:37.288Z,84.93
2023-05-17T10:26:41.084Z,85.09
2023-05-17T10:27:45.639Z,85.61
2023-05-17T10:28:51.636Z,85.69
2023-05-17T10:29:56.588Z,85.68
2023-05-17T10:31:00.791Z,85.18
2023-05-17T10:32:07.828Z,85.05
2023-05-17T10:33:16.027Z,85.67
2023-05-17T10:34:21.955Z,85.70
2023-05-17T10:35:27.634Z,85.54
2023-05-17T10:36:31.953Z,85.14
2023-05-17T10:37:36.318Z,85.37
2023-05-17T10:38:42.836Z,85.10
2023-05-17T10:39:51.204Z,84.82
2023-05-17T10:40:56.622Z,84.28
2023-05-17T10:42:13.588Z,84.27
2023-05-17T10:43:20.061Z,83.88
2023-05-17T10:44:23.381Z,83.39
2023-05-17T10:45:28.239Z,83.10
2023-05-17T10:46:32.559Z,82.49
2023-05-17T10:47:36.916Z,82.24
2023-05-17T10:48:41.721Z,81.93
2023-05-17T10:49:48.698Z,81.26
2023-05-17T10:52:13.889Z,80.47
2023-05-17T10:53:16.939Z,79.93
2023-05-17T10:54:21.716Z,79.47
2023-05-17T10:55:27.438Z,79.51
2023-05-17T10:56:32.408Z,79.23
2023-05-17T10:58:46.319Z,78.23
2023-05-17T11:00:00.504Z,77.94
2023-05-17T11:01:08.211Z,78.16
2023-05-17T11:02:11.350Z,77.34
2023-05-17T11:03:17.076Z,76.88
2023-05-17T11:04:26.313Z,76.80
2023-05-17T11:05:33.908Z,76.82
2023-05-17T11:06:38.579Z,77.47
2023-05-17T11:07:43.851Z,77.52
2023-05-17T11:09:08.530Z,77.40
2023-05-17T11:10:14.448Z,77.39
2023-05-17T11:11:18.855Z,77.38
2023-05-17T11:12:39.376Z,76.93
2023-05-17T11:13:48.201Z,76.83
2023-05-17T11:14:55.342Z,76.75
2023-05-17T11:16:06.153Z,76.44
2023-05-17T11:17:14.726Z,76.14
2023-05-17T11:18:29.548Z,75.82
2023-05-17T11:19:35.846Z,75.85
2023-05-17T11:20:41.972Z,75.71
2023-05-17T11:21:49.369Z,76.04
2023-05-17T11:23:02.817Z,76.08
2023-05-17T11:24:08.850Z,75.68
2023-05-17T11:25:13.843Z,75.52
2023-05-17T11:26:22.773Z,75.52
2023-05-17T11:27:27.745Z,74.75
2023-05-17T11:28:35.952Z,74.23
2023-05-17T11:29:41.475Z,73.94
2023-05-17T11:30:52.208Z,73.42
2023-05-17T11:31:55.695Z,73.52
2023-05-17T11:33:01.162Z,73.39
2023-05-17T11:34:05.404Z,73.02
2023-05-17T11:35:12.306Z,73.26
2023-05-17T11:36:24.413Z,72.55
2023-05-17T11:37:28.927Z,72.66
2023-05-17T11:38:34.481Z,72.15
2023-05-17T11:39:37.754Z,72.04
2023-05-17T11:40:42.780Z,71.98
2023-05-17T11:41:51.171Z,71.81
2023-05-17T11:43:14.333Z,71.73
2023-05-17T11:44:27.118Z,71.58
2023-05-17T11:45:39.503Z,71.23
2023-05-17T11:46:44.532Z,71.07
2023-05-17T11:47:49.718Z,70.54
2023-05-17T11:48:54.893Z,70.26
2023-05-17T11:50:02.041Z,70.19
2023-05-17T11:51:24.418Z,70.09
2023-05-17T11:52:31.878Z,69.88
2023-05-17T11:53:35.699Z,70.02
2023-05-17T11:54:43.047Z,69.98
2023-05-17T11:55:48.679Z,69.46
2023-05-17T11:56:54.386Z,69.85
2023-05-17T11:57:58.243Z,69.31
2023-05-17T11:59:01.673Z,69.61
2023-05-17T12:00:06.188Z,69.59
2023-05-17T12:01:11.745Z,69.43
2023-05-17T12:02:29.552Z,69.31
2023-05-17T12:03:33.637Z,69.07
2023-05-17T12:04:39.756Z,69.26
2023-05-17T12:05:43.038Z,68.96
2023-05-17T12:06:47.030Z,68.70
2023-05-17T12:07:53.767Z,69.09
2023-05-17T12:08:58.741Z,68.34
2023-05-17T12:10:02.752Z,68.17
2023-05-17T12:11:07.469Z,68.60
2023-05-17T12:12:10.885Z,68.55
2023-05-17T12:13:15.671Z,68.15
2023-05-17T12:14:20.570Z,67.95
2023-05-17T12:15:23.767Z,67.98
2023-05-17T12:16:30.829Z,68.27
2023-05-17T12:17:38.656Z,68.02
2023-05-17T12:18:44.539Z,67.56
2023-05-17T12:19:48.909Z,66.99
2023-05-17T12:20:58.424Z,66.74
2023-05-17T12:22:08.781Z,66.35
2023-05-17T12:23:13.857Z,66.41
2023-05-17T12:24:18.196Z,65.88
2023-05-17T12:25:22.603Z,65.91
2023-05-17T12:26:26.697Z,65.76
2023-05-17T12:27:31.577Z,65.73
2023-05-17T12:28:35.866Z,65.21
2023-05-17T12:29:40.319Z,65.62
2023-05-17T12:30:43.647Z,65.89
2023-05-17T12:31:51.706Z,66.27
2023-05-17T12:32:55.086Z,67.53
2023-05-17T12:34:02.995Z,68.64
2023-05-17T12:35:06.740Z,69.70
2023-05-17T12:36:12.477Z,70.43
2023-05-17T12:37:17.011Z,71.75
2023-05-17T12:38:22.571Z,72.42
2023-05-17T12:39:26.961Z,72.93
2023-05-17T12:40:30.249Z,73.41
2023-05-17T12:41:34.451Z,73.99
2023-05-17T12:42:41.276Z,74.16
2023-05-17T12:43:46.880Z,74.15
2023-05-17T12:44:50.903Z,74.10
2023-05-17T12:45:55.065Z,74.13
2023-05-17T12:46:58.809Z,74.27
2023-05-17T12:48:03.321Z,74.74
2023-05-17T12:49:08.776Z,74.71
2023-05-17T12:50:13.079Z,74.71
2023-05-17T12:51:18.472Z,74.73
2023-05-17T12:52:21.232Z,74.42
2023-05-17T12:53:36.522Z,73.95
2023-05-17T12:54:43.591Z,73.24
2023-05-17T12:55:48.283Z,72.39
2023-05-17T12:56:52.089Z,71.63
2023-05-17T12:57:55.334Z,71.16
2023-05-17T12:59:13.127Z,70.41
2023-05-17T13:00:18.473Z,69.56
2023-05-17T13:01:24.782Z,69.39
2023-05-17T13:02:28.696Z,68.89
2023-05-17T13:03:33.197Z,68.40
2023-05-17T13:04:37.965Z,68.12
2023-05-17T13:05:43.612Z,67.71
2023-05-17T13:06:50.845Z,67.31
2023-05-17T13:07:54.553Z,66.96
2023-05-17T13:09:03.692Z,66.40
2023-05-17T13:10:20.881Z,66.39
2023-05-17T13:11:27.320Z,65.75
2023-05-17T13:12:31.635Z,65.61
2023-05-17T13:13:35.900Z,65.35
2023-05-17T13:14:45.268Z,64.66
2023-05-17T13:15:50.650Z,64.47
2023-05-17T13:16:55.098Z,64.38
2023-05-17T13:18:00.789Z,64.00
2023-05-17T13:19:13.960Z,63.68
2023-05-17T13:20:17.486Z,63.97
2023-05-17T13:21:21.650Z,63.63
2023-05-17T13:22:26.838Z,63.27
2023-05-17T13:23:29.514Z,62.81
2023-05-17T13:24:36.754Z,62.90
2023-05-17T13:25:40.666Z,62.86
2023-05-17T13:26:44.878Z,62.99
2023-05-17T13:27:49.952Z,62.80
2023-05-17T13:28:52.638Z,62.93
2023-05-17T13:29:57.220Z,62.25
2023-05-17T13:30:59.906Z,62.47
2023-05-17T13:32:04.291Z,62.58
2023-05-17T13:33:07.727Z,62.58
2023-05-17T13:34:12.174Z,62.44
2023-05-17T13:35:16.373Z,62.52
2023-05-17T13:36:20.209Z,62.27
2023-05-17T13:37:24.477Z,62.36
2023-05-17T13:38:27.318Z,62.61
2023-05-17T13:39:31.324Z,62.81
2023-05-17T13:40:36.550Z,62.69
2023-05-17T13:41:40.807Z,62.33
2023-05-17T13:42:43.681Z,62.52
2023-05-17T13:43:48.759Z,62.45
2023-05-17T13:44:52.147Z,62.38
2023-05-17T13:45:59.332Z,62.64
2023-05-17T13:47:03.911Z,62.03
2023-05-17T13:48:06.982Z,62.08
2023-05-17T13:49:11.612Z,62.29
2023-05-17T13:50:17.682Z,62.37
2023-05-17T13:51:20.784Z,62.25
2023-05-17T13:52:25.605Z,62.02
2023-05-17T13:53:28.416Z,61.79
2023-05-17T13:54:32.524Z,61.54
2023-05-17T13:55:39.723Z,61.53
2023-05-17T13:56:42.966Z,61.92
2023-05-17T13:57:47.109Z,61.81
2023-05-17T13:58:51.705Z,61.96
2023-05-17T13:59:56.885Z,61.84
2023-05-17T14:02:05.127Z,61.91
2023-05-17T14:03:11.399Z,61.73
2023-05-17T14:04:14.512Z,61.88
2023-05-17T14:05:19.120Z,61.84